sensor_id;sensor_type;location;lat;lon;timestamp;temperature;humidity
17891;DHT22;9071;48.220;14.480;2022-12-07T00:00:06;4.50;99.90
17891;DHT22;9071;48.220;14.480;2022-12-07T00:05:08;4.50;99.90
17891;DHT22;9071;48.220;14.480;2022-12-07T00:10:11;4.50;99.90
17891;DHT22;9071;48.220;14.480;2022-12-07T00:15:14;4.50;99.90
17891;DHT22;9071;48.220;14.480;2022-12-07T00:20:16;4.50;99.90
17891;DHT22;9071;48.220;14.480;2022-12-07T00:25:18;4.50;99.90
17891;DHT22;9071;48.220;14.480;2022-12-07T00:30:22;4.50;99.90
17891;DHT22;9071;48.220;14.480;2022-12-07T00:35:24;4.60;99.90
17891;DHT22;9071;48.220;14.480;2022-12-07T00:40:26;4.60;99.90
17891;DHT22;9071;48.220;14.480;2022-12-07T00:45:30;4.60;99.90
17891;DHT22;9071;48.220;14.480;2022-12-07T00:50:32;4.50;99.90
17891;DHT22;9071;48.220;14.480;2022-12-07T00:55:34;4.50;99.90
17891;DHT22;9071;48.220;14.480;2022-12-07T01:00:39;4.50;99.90
17891;DHT22;9071;48.220;14.480;2022-12-07T01:05:50;4.40;99.90
17891;DHT22;9071;48.220;14.480;2022-12-07T01:10:58;4.40;99.90
17891;DHT22;9071;48.220;14.480;2022-12-07T01:16:04;4.40;99.90
17891;DHT22;9071;48.220;14.480;2022-12-07T01:21:09;4.40;99.90
17891;DHT22;9071;48.220;14.480;2022-12-07T01:26:14;4.30;99.90
17891;DHT22;9071;48.220;14.480;2022-12-07T01:31:19;4.30;99.90
17891;DHT22;9071;48.220;14.480;2022-12-07T01:36:23;4.30;99.90
17891;DHT22;9071;48.220;14.480;2022-12-07T01:41:26;4.30;99.90
17891;DHT22;9071;48.220;14.480;2022-12-07T01:46:30;4.20;99.90
17891;DHT22;9071;48.220;14.480;2022-12-07T01:51:32;4.20;99.90
17891;DHT22;9071;48.220;14.480;2022-12-07T01:56:36;4.20;99.90
17891;DHT22;9071;48.220;14.480;2022-12-07T02:01:40;4.20;99.90
17891;DHT22;9071;48.220;14.480;2022-12-07T02:06:43;4.20;99.90
17891;DHT22;9071;48.220;14.480;2022-12-07T02:11:46;4.20;99.90
17891;DHT22;9071;48.220;14.480;2022-12-07T02:16:59;4.20;99.90
17891;DHT22;9071;48.220;14.480;2022-12-07T02:22:16;4.20;99.90
17891;DHT22;9071;48.220;14.480;2022-12-07T02:27:34;4.20;99.90
17891;DHT22;9071;48.220;14.480;2022-12-07T02:32:44;4.20;99.90
17891;DHT22;9071;48.220;14.480;2022-12-07T02:37:58;4.20;99.90
17891;DHT22;9071;48.220;14.480;2022-12-07T02:43:06;4.20;99.90
17891;DHT22;9071;48.220;14.480;2022-12-07T02:48:13;4.20;99.90
17891;DHT22;9071;48.220;14.480;2022-12-07T02:53:31;4.20;99.90
17891;DHT22;9071;48.220;14.480;2022-12-07T02:58:45;4.20;99.90
17891;DHT22;9071;48.220;14.480;2022-12-07T03:04:02;4.20;99.90
17891;DHT22;9071;48.220;14.480;2022-12-07T03:09:12;4.20;99.90
17891;DHT22;9071;48.220;14.480;2022-12-07T03:14:19;4.20;99.90
17891;DHT22;9071;48.220;14.480;2022-12-07T03:19:26;4.20;99.90
17891;DHT22;9071;48.220;14.480;2022-12-07T03:24:33;4.20;99.90
17891;DHT22;9071;48.220;14.480;2022-12-07T03:29:42;4.10;99.90
17891;DHT22;9071;48.220;14.480;2022-12-07T03:34:49;4.20;99.90
17891;DHT22;9071;48.220;14.480;2022-12-07T03:39:58;4.20;99.90
17891;DHT22;9071;48.220;14.480;2022-12-07T03:45:02;4.20;99.90
17891;DHT22;9071;48.220;14.480;2022-12-07T03:50:10;4.20;99.90
17891;DHT22;9071;48.220;14.480;2022-12-07T03:55:20;4.20;99.90
17891;DHT22;9071;48.220;14.480;2022-12-07T04:00:25;4.20;99.90
17891;DHT22;9071;48.220;14.480;2022-12-07T04:05:28;4.20;99.90
17891;DHT22;9071;48.220;14.480;2022-12-07T04:10:30;4.10;99.90
17891;DHT22;9071;48.220;14.480;2022-12-07T04:15:32;4.20;99.90
17891;DHT22;9071;48.220;14.480;2022-12-07T04:20:36;4.10;99.90
17891;DHT22;9071;48.220;14.480;2022-12-07T04:25:38;4.10;99.90
17891;DHT22;9071;48.220;14.480;2022-12-07T04:30:40;4.10;99.90
17891;DHT22;9071;48.220;14.480;2022-12-07T04:35:44;4.10;99.90
17891;DHT22;9071;48.220;14.480;2022-12-07T04:40:46;4.10;99.90
17891;DHT22;9071;48.220;14.480;2022-12-07T04:45:48;4.00;99.90
17891;DHT22;9071;48.220;14.480;2022-12-07T04:50:53;4.00;99.90
17891;DHT22;9071;48.220;14.480;2022-12-07T04:55:55;3.90;99.90
17891;DHT22;9071;48.220;14.480;2022-12-07T05:00:57;3.90;99.90
17891;DHT22;9071;48.220;14.480;2022-12-07T05:06:00;3.80;99.90
17891;DHT22;9071;48.220;14.480;2022-12-07T05:11:03;3.90;99.90
17891;DHT22;9071;48.220;14.480;2022-12-07T05:16:06;3.80;99.90
17891;DHT22;9071;48.220;14.480;2022-12-07T05:21:11;3.70;99.90
17891;DHT22;9071;48.220;14.480;2022-12-07T05:26:13;3.70;99.90
17891;DHT22;9071;48.220;14.480;2022-12-07T05:31:15;3.70;99.90
17891;DHT22;9071;48.220;14.480;2022-12-07T05:36:18;3.70;99.90
17891;DHT22;9071;48.220;14.480;2022-12-07T05:41:20;3.70;99.90
17891;DHT22;9071;48.220;14.480;2022-12-07T05:46:40;3.70;99.90
17891;DHT22;9071;48.220;14.480;2022-12-07T05:51:43;3.70;99.90
17891;DHT22;9071;48.220;14.480;2022-12-07T05:56:45;3.60;99.90
17891;DHT22;9071;48.220;14.480;2022-12-07T06:01:47;3.60;99.90
17891;DHT22;9071;48.220;14.480;2022-12-07T06:06:51;3.60;99.90
17891;DHT22;9071;48.220;14.480;2022-12-07T06:11:54;3.60;99.90
17891;DHT22;9071;48.220;14.480;2022-12-07T06:17:14;3.60;99.90
17891;DHT22;9071;48.220;14.480;2022-12-07T06:22:17;3.60;99.90
17891;DHT22;9071;48.220;14.480;2022-12-07T06:27:20;3.50;99.90
17891;DHT22;9071;48.220;14.480;2022-12-07T06:32:22;3.50;99.90
17891;DHT22;9071;48.220;14.480;2022-12-07T06:37:25;3.50;99.90
17891;DHT22;9071;48.220;14.480;2022-12-07T06:42:27;3.50;99.90
17891;DHT22;9071;48.220;14.480;2022-12-07T06:47:29;3.50;99.90
17891;DHT22;9071;48.220;14.480;2022-12-07T06:52:33;3.50;99.90
17891;DHT22;9071;48.220;14.480;2022-12-07T06:57:35;3.60;99.90
17891;DHT22;9071;48.220;14.480;2022-12-07T07:02:37;3.70;99.90
17891;DHT22;9071;48.220;14.480;2022-12-07T07:07:41;3.60;99.90
17891;DHT22;9071;48.220;14.480;2022-12-07T07:12:43;3.60;99.90
17891;DHT22;9071;48.220;14.480;2022-12-07T07:17:45;3.60;99.90
17891;DHT22;9071;48.220;14.480;2022-12-07T07:22:49;3.70;99.90
17891;DHT22;9071;48.220;14.480;2022-12-07T07:27:53;3.70;99.90
17891;DHT22;9071;48.220;14.480;2022-12-07T07:32:56;3.80;99.90
17891;DHT22;9071;48.220;14.480;2022-12-07T07:38:00;3.90;99.90
17891;DHT22;9071;48.220;14.480;2022-12-07T07:43:02;3.90;99.90
17891;DHT22;9071;48.220;14.480;2022-12-07T07:48:05;4.00;99.90
17891;DHT22;9071;48.220;14.480;2022-12-07T07:53:08;4.10;99.90
17891;DHT22;9071;48.220;14.480;2022-12-07T07:58:10;4.20;99.90
17891;DHT22;9071;48.220;14.480;2022-12-07T08:03:12;4.20;99.90
17891;DHT22;9071;48.220;14.480;2022-12-07T08:08:16;4.30;99.90
17891;DHT22;9071;48.220;14.480;2022-12-07T08:13:18;4.30;99.90
17891;DHT22;9071;48.220;14.480;2022-12-07T08:18:20;4.50;99.90
17891;DHT22;9071;48.220;14.480;2022-12-07T08:23:23;4.50;99.90
17891;DHT22;9071;48.220;14.480;2022-12-07T08:28:25;4.70;99.90
17891;DHT22;9071;48.220;14.480;2022-12-07T08:33:27;4.70;99.90
17891;DHT22;9071;48.220;14.480;2022-12-07T08:38:31;4.80;99.90
17891;DHT22;9071;48.220;14.480;2022-12-07T08:43:34;4.80;99.90
17891;DHT22;9071;48.220;14.480;2022-12-07T08:48:41;4.90;99.90
17891;DHT22;9071;48.220;14.480;2022-12-07T08:53:47;5.00;99.90
17891;DHT22;9071;48.220;14.480;2022-12-07T08:58:50;5.10;99.90
17891;DHT22;9071;48.220;14.480;2022-12-07T09:03:52;5.20;99.90
17891;DHT22;9071;48.220;14.480;2022-12-07T09:08:58;5.30;99.90
17891;DHT22;9071;48.220;14.480;2022-12-07T09:14:00;5.30;99.90
17891;DHT22;9071;48.220;14.480;2022-12-07T09:19:02;5.20;99.90
17891;DHT22;9071;48.220;14.480;2022-12-07T09:24:06;5.20;99.90
17891;DHT22;9071;48.220;14.480;2022-12-07T09:29:09;5.10;99.90
17891;DHT22;9071;48.220;14.480;2022-12-07T09:34:11;5.00;99.90
17891;DHT22;9071;48.220;14.480;2022-12-07T09:39:15;5.00;99.90
17891;DHT22;9071;48.220;14.480;2022-12-07T09:44:23;5.20;99.90
17891;DHT22;9071;48.220;14.480;2022-12-07T09:49:28;5.30;99.90
17891;DHT22;9071;48.220;14.480;2022-12-07T09:54:35;5.40;99.90
17891;DHT22;9071;48.220;14.480;2022-12-07T09:59:38;5.40;99.90
17891;DHT22;9071;48.220;14.480;2022-12-07T10:04:41;5.40;99.90
17891;DHT22;9071;48.220;14.480;2022-12-07T10:09:46;5.40;99.90
17891;DHT22;9071;48.220;14.480;2022-12-07T10:14:56;5.40;99.90
17891;DHT22;9071;48.220;14.480;2022-12-07T10:20:17;5.50;99.90
17891;DHT22;9071;48.220;14.480;2022-12-07T10:25:22;5.50;99.90
17891;DHT22;9071;48.220;14.480;2022-12-07T10:30:25;5.50;99.90
17891;DHT22;9071;48.220;14.480;2022-12-07T10:35:28;5.60;99.90
17891;DHT22;9071;48.220;14.480;2022-12-07T10:40:35;5.70;99.90
17891;DHT22;9071;48.220;14.480;2022-12-07T10:46:08;5.70;99.90
17891;DHT22;9071;48.220;14.480;2022-12-07T10:51:17;5.90;99.90
17891;DHT22;9071;48.220;14.480;2022-12-07T10:56:45;5.80;99.90
17891;DHT22;9071;48.220;14.480;2022-12-07T11:01:57;5.80;99.90
17891;DHT22;9071;48.220;14.480;2022-12-07T11:07:05;5.90;99.90
17891;DHT22;9071;48.220;14.480;2022-12-07T11:12:21;5.90;99.90
17891;DHT22;9071;48.220;14.480;2022-12-07T11:17:33;5.90;99.90
17891;DHT22;9071;48.220;14.480;2022-12-07T11:22:43;5.70;99.90
17891;DHT22;9071;48.220;14.480;2022-12-07T11:28:02;5.70;99.90
17891;DHT22;9071;48.220;14.480;2022-12-07T11:33:13;6.10;99.90
17891;DHT22;9071;48.220;14.480;2022-12-07T11:38:21;6.30;99.90
17891;DHT22;9071;48.220;14.480;2022-12-07T11:43:28;6.10;99.90
17891;DHT22;9071;48.220;14.480;2022-12-07T11:48:37;6.00;99.90
17891;DHT22;9071;48.220;14.480;2022-12-07T11:53:45;5.80;99.90
17891;DHT22;9071;48.220;14.480;2022-12-07T11:58:55;6.10;99.90
17891;DHT22;9071;48.220;14.480;2022-12-07T12:04:05;6.20;99.90
17891;DHT22;9071;48.220;14.480;2022-12-07T12:09:13;6.10;99.90
17891;DHT22;9071;48.220;14.480;2022-12-07T12:14:30;6.00;99.90
17891;DHT22;9071;48.220;14.480;2022-12-07T12:19:40;6.10;99.90
17891;DHT22;9071;48.220;14.480;2022-12-07T12:24:44;6.50;99.90
17891;DHT22;9071;48.220;14.480;2022-12-07T12:29:52;6.60;99.90
17891;DHT22;9071;48.220;14.480;2022-12-07T12:35:02;6.50;99.90
17891;DHT22;9071;48.220;14.480;2022-12-07T12:40:39;6.40;99.90
17891;DHT22;9071;48.220;14.480;2022-12-07T12:45:43;6.40;99.90
17891;DHT22;9071;48.220;14.480;2022-12-07T12:50:45;6.30;99.90
17891;DHT22;9071;48.220;14.480;2022-12-07T12:56:12;6.30;99.90
17891;DHT22;9071;48.220;14.480;2022-12-07T13:01:43;6.20;99.90
17891;DHT22;9071;48.220;14.480;2022-12-07T13:06:46;6.20;99.90
17891;DHT22;9071;48.220;14.480;2022-12-07T13:11:49;6.20;99.90
17891;DHT22;9071;48.220;14.480;2022-12-07T13:16:53;6.00;99.90
17891;DHT22;9071;48.220;14.480;2022-12-07T13:21:55;5.90;99.90
17891;DHT22;9071;48.220;14.480;2022-12-07T13:26:57;5.80;99.90
17891;DHT22;9071;48.220;14.480;2022-12-07T13:32:01;5.70;99.90
17891;DHT22;9071;48.220;14.480;2022-12-07T13:37:10;5.60;99.90
17891;DHT22;9071;48.220;14.480;2022-12-07T13:42:21;5.60;99.90
17891;DHT22;9071;48.220;14.480;2022-12-07T13:47:34;5.50;99.90
17891;DHT22;9071;48.220;14.480;2022-12-07T13:52:43;5.30;99.90
17891;DHT22;9071;48.220;14.480;2022-12-07T13:57:48;5.30;99.90
17891;DHT22;9071;48.220;14.480;2022-12-07T14:02:58;5.20;99.90
17891;DHT22;9071;48.220;14.480;2022-12-07T14:08:02;5.10;99.90
17891;DHT22;9071;48.220;14.480;2022-12-07T14:13:31;5.00;99.90
17891;DHT22;9071;48.220;14.480;2022-12-07T14:18:39;5.00;99.90
17891;DHT22;9071;48.220;14.480;2022-12-07T14:23:42;4.90;99.90
17891;DHT22;9071;48.220;14.480;2022-12-07T14:28:44;4.70;99.90
17891;DHT22;9071;48.220;14.480;2022-12-07T14:33:47;4.50;99.90
17891;DHT22;9071;48.220;14.480;2022-12-07T14:38:49;4.30;99.90
17891;DHT22;9071;48.220;14.480;2022-12-07T14:43:54;4.30;99.90
17891;DHT22;9071;48.220;14.480;2022-12-07T14:48:58;4.30;99.90
17891;DHT22;9071;48.220;14.480;2022-12-07T14:54:00;4.20;99.90
17891;DHT22;9071;48.220;14.480;2022-12-07T14:59:02;4.00;99.90
17891;DHT22;9071;48.220;14.480;2022-12-07T15:04:05;3.80;99.90
17891;DHT22;9071;48.220;14.480;2022-12-07T15:09:09;3.60;99.90
17891;DHT22;9071;48.220;14.480;2022-12-07T15:14:11;3.40;99.90
17891;DHT22;9071;48.220;14.480;2022-12-07T15:19:16;3.20;99.90
17891;DHT22;9071;48.220;14.480;2022-12-07T15:24:19;2.90;99.90
17891;DHT22;9071;48.220;14.480;2022-12-07T15:29:22;2.60;99.90
17891;DHT22;9071;48.220;14.480;2022-12-07T15:34:26;2.60;99.90
17891;DHT22;9071;48.220;14.480;2022-12-07T15:39:29;2.60;99.90
17891;DHT22;9071;48.220;14.480;2022-12-07T15:44:31;2.60;99.90
17891;DHT22;9071;48.220;14.480;2022-12-07T15:49:52;2.50;99.90
17891;DHT22;9071;48.220;14.480;2022-12-07T15:54:54;2.50;99.90
17891;DHT22;9071;48.220;14.480;2022-12-07T15:59:56;2.60;99.90
17891;DHT22;9071;48.220;14.480;2022-12-07T16:05:00;2.50;99.90
17891;DHT22;9071;48.220;14.480;2022-12-07T16:10:02;2.30;99.90
17891;DHT22;9071;48.220;14.480;2022-12-07T16:15:05;2.10;99.90
17891;DHT22;9071;48.220;14.480;2022-12-07T16:20:10;2.00;99.90
17891;DHT22;9071;48.220;14.480;2022-12-07T16:25:12;2.00;99.90
17891;DHT22;9071;48.220;14.480;2022-12-07T16:30:14;2.00;99.90
17891;DHT22;9071;48.220;14.480;2022-12-07T16:35:18;2.10;99.90
17891;DHT22;9071;48.220;14.480;2022-12-07T16:40:20;2.30;99.90
17891;DHT22;9071;48.220;14.480;2022-12-07T16:45:22;2.40;99.90
17891;DHT22;9071;48.220;14.480;2022-12-07T16:50:25;2.60;99.90
17891;DHT22;9071;48.220;14.480;2022-12-07T16:55:27;2.70;99.90
17891;DHT22;9071;48.220;14.480;2022-12-07T17:00:29;2.90;99.90
17891;DHT22;9071;48.220;14.480;2022-12-07T17:05:33;3.00;99.90
17891;DHT22;9071;48.220;14.480;2022-12-07T17:10:37;3.10;99.90
17891;DHT22;9071;48.220;14.480;2022-12-07T17:15:39;3.20;99.90
17891;DHT22;9071;48.220;14.480;2022-12-07T17:20:42;3.30;99.90
17891;DHT22;9071;48.220;14.480;2022-12-07T17:25:45;3.30;99.90
17891;DHT22;9071;48.220;14.480;2022-12-07T17:30:47;3.30;99.90
17891;DHT22;9071;48.220;14.480;2022-12-07T17:35:50;3.30;99.90
17891;DHT22;9071;48.220;14.480;2022-12-07T17:40:52;3.30;99.90
17891;DHT22;9071;48.220;14.480;2022-12-07T17:45:54;3.30;99.90
17891;DHT22;9071;48.220;14.480;2022-12-07T17:51:00;3.30;99.90
17891;DHT22;9071;48.220;14.480;2022-12-07T17:56:20;3.30;99.90
17891;DHT22;9071;48.220;14.480;2022-12-07T18:01:22;3.20;99.90
17891;DHT22;9071;48.220;14.480;2022-12-07T18:06:25;3.20;99.90
17891;DHT22;9071;48.220;14.480;2022-12-07T18:11:28;3.20;99.90
17891;DHT22;9071;48.220;14.480;2022-12-07T18:16:30;3.10;99.90
17891;DHT22;9071;48.220;14.480;2022-12-07T18:21:35;3.00;99.90
17891;DHT22;9071;48.220;14.480;2022-12-07T18:26:38;2.90;99.90
17891;DHT22;9071;48.220;14.480;2022-12-07T18:31:40;2.80;99.90
17891;DHT22;9071;48.220;14.480;2022-12-07T18:36:45;2.80;99.90
17891;DHT22;9071;48.220;14.480;2022-12-07T18:41:47;2.80;99.90
17891;DHT22;9071;48.220;14.480;2022-12-07T18:46:50;2.70;99.90
17891;DHT22;9071;48.220;14.480;2022-12-07T18:51:53;2.70;99.90
17891;DHT22;9071;48.220;14.480;2022-12-07T18:56:55;2.60;99.90
17891;DHT22;9071;48.220;14.480;2022-12-07T19:02:01;2.60;99.90
17891;DHT22;9071;48.220;14.480;2022-12-07T19:07:05;2.60;99.90
17891;DHT22;9071;48.220;14.480;2022-12-07T19:12:10;2.70;99.90
17891;DHT22;9071;48.220;14.480;2022-12-07T19:17:13;2.70;99.90
17891;DHT22;9071;48.220;14.480;2022-12-07T19:22:17;2.70;99.90
17891;DHT22;9071;48.220;14.480;2022-12-07T19:27:21;2.60;99.90
17891;DHT22;9071;48.220;14.480;2022-12-07T19:32:23;2.60;99.90
17891;DHT22;9071;48.220;14.480;2022-12-07T19:37:29;2.70;99.90
17891;DHT22;9071;48.220;14.480;2022-12-07T19:42:31;2.60;99.90
17891;DHT22;9071;48.220;14.480;2022-12-07T19:47:35;2.60;99.90
17891;DHT22;9071;48.220;14.480;2022-12-07T19:52:38;2.60;99.90
17891;DHT22;9071;48.220;14.480;2022-12-07T19:57:40;2.60;99.90
17891;DHT22;9071;48.220;14.480;2022-12-07T20:02:43;2.60;99.90
17891;DHT22;9071;48.220;14.480;2022-12-07T20:07:46;2.60;99.90
17891;DHT22;9071;48.220;14.480;2022-12-07T20:12:48;2.50;99.90
17891;DHT22;9071;48.220;14.480;2022-12-07T20:18:07;2.60;99.90
17891;DHT22;9071;48.220;14.480;2022-12-07T20:23:11;2.50;99.90
17891;DHT22;9071;48.220;14.480;2022-12-07T20:28:13;2.50;99.90
17891;DHT22;9071;48.220;14.480;2022-12-07T20:33:15;2.50;99.90
17891;DHT22;9071;48.220;14.480;2022-12-07T20:38:19;2.50;99.90
17891;DHT22;9071;48.220;14.480;2022-12-07T20:43:21;2.50;99.90
17891;DHT22;9071;48.220;14.480;2022-12-07T20:48:23;2.50;99.90
17891;DHT22;9071;48.220;14.480;2022-12-07T20:53:26;2.60;99.90
17891;DHT22;9071;48.220;14.480;2022-12-07T20:58:28;2.60;99.90
17891;DHT22;9071;48.220;14.480;2022-12-07T21:03:31;2.60;99.90
17891;DHT22;9071;48.220;14.480;2022-12-07T21:08:34;2.60;99.90
17891;DHT22;9071;48.220;14.480;2022-12-07T21:13:36;2.50;99.90
17891;DHT22;9071;48.220;14.480;2022-12-07T21:18:38;2.60;99.90
17891;DHT22;9071;48.220;14.480;2022-12-07T21:23:42;2.60;99.90
17891;DHT22;9071;48.220;14.480;2022-12-07T21:28:44;2.50;99.90
17891;DHT22;9071;48.220;14.480;2022-12-07T21:33:47;2.50;99.90
17891;DHT22;9071;48.220;14.480;2022-12-07T21:38:51;2.40;99.90
17891;DHT22;9071;48.220;14.480;2022-12-07T21:43:53;2.30;99.90
17891;DHT22;9071;48.220;14.480;2022-12-07T21:48:57;2.30;99.90
17891;DHT22;9071;48.220;14.480;2022-12-07T21:54:02;2.30;99.90
17891;DHT22;9071;48.220;14.480;2022-12-07T21:59:11;2.30;99.90
17891;DHT22;9071;48.220;14.480;2022-12-07T22:04:15;2.30;99.90
17891;DHT22;9071;48.220;14.480;2022-12-07T22:09:19;2.30;99.90
17891;DHT22;9071;48.220;14.480;2022-12-07T22:14:22;2.30;99.90
17891;DHT22;9071;48.220;14.480;2022-12-07T22:19:42;2.30;99.90
17891;DHT22;9071;48.220;14.480;2022-12-07T22:24:46;2.30;99.90
17891;DHT22;9071;48.220;14.480;2022-12-07T22:29:48;2.30;99.90
17891;DHT22;9071;48.220;14.480;2022-12-07T22:34:50;2.30;99.90
17891;DHT22;9071;48.220;14.480;2022-12-07T22:39:54;2.30;99.90
17891;DHT22;9071;48.220;14.480;2022-12-07T22:44:56;2.40;99.90
17891;DHT22;9071;48.220;14.480;2022-12-07T22:49:58;2.40;99.90
17891;DHT22;9071;48.220;14.480;2022-12-07T22:55:01;2.30;99.90
17891;DHT22;9071;48.220;14.480;2022-12-07T23:00:05;2.30;99.90
17891;DHT22;9071;48.220;14.480;2022-12-07T23:05:09;2.30;99.90
17891;DHT22;9071;48.220;14.480;2022-12-07T23:10:13;2.20;99.90
17891;DHT22;9071;48.220;14.480;2022-12-07T23:15:15;2.30;99.90
17891;DHT22;9071;48.220;14.480;2022-12-07T23:20:17;2.30;99.90
17891;DHT22;9071;48.220;14.480;2022-12-07T23:25:21;2.20;99.90
17891;DHT22;9071;48.220;14.480;2022-12-07T23:30:23;2.20;99.90
17891;DHT22;9071;48.220;14.480;2022-12-07T23:35:25;2.20;99.90
17891;DHT22;9071;48.220;14.480;2022-12-07T23:40:29;2.10;99.90
17891;DHT22;9071;48.220;14.480;2022-12-07T23:45:31;2.10;99.90
17891;DHT22;9071;48.220;14.480;2022-12-07T23:50:33;2.20;99.90
17891;DHT22;9071;48.220;14.480;2022-12-07T23:55:36;2.10;99.90
